Time,TemperatureF,DewpointF,PressureIn,WindDirection,WindDirectionDegrees,WindSpeedMPH,WindSpeedGustMPH,Humidity,HourlyPrecipIn,Conditions,Clouds,dailyrainin,SoftwareType,DateUTC
2013-12-01 00:01:00,28.2,21.3,30.33,East,90,0.0,0.0,75,0.00,,CLR,0.00,VWS V12.08,2013-12-01 05:01:00,
2013-12-01 00:02:00,28.2,21.3,30.33,East,90,0.0,0.0,75,0.00,,CLR,0.00,VWS V12.08,2013-12-01 05:02:00,
2013-12-01 00:03:00,28.2,21.3,30.33,East,90,0.0,0.0,75,0.00,,CLR,0.00,VWS V12.08,2013-12-01 05:03:00,
2013-12-01 00:08:00,28.2,21.3,30.32,East,90,0.0,0.0,75,0.00,,CLR,0.00,VWS V12.08,2013-12-01 05:08:00,
2013-12-01 00:13:00,28.0,21.1,30.32,East,90,0.0,0.0,75,0.00,,CLR,0.00,VWS V12.08,2013-12-01 05:13:00,
2013-12-01 00:18:00,28.0,21.1,30.32,East,90,0.0,0.0,75,0.00,,CLR,0.00,VWS V12.08,2013-12-01 05:18:00,
2013-12-01 00:23:00,28.0,21.1,30.32,East,90,0.0,0.0,75,0.00,,CLR,0.00,VWS V12.08,2013-12-01 05:23:00,
2013-12-01 00:28:00,28.0,21.1,30.32,East,90,0.0,0.0,75,0.00,,CLR,0.00,VWS V12.08,2013-12-01 05:28:00,
2013-12-01 00:33:00,28.0,21.1,30.32,East,90,0.0,0.0,75,0.00,,CLR,0.00,VWS V12.08,2013-12-01 05:33:00,
2013-12-01 00:38:00,28.0,21.1,30.32,East,90,0.0,0.0,75,0.00,,CLR,0.00,VWS V12.08,2013-12-01 05:38:00,
2013-12-01 00:43:00,28.0,21.1,30.32,East,90,0.0,0.0,75,0.00,,CLR,0.00,VWS V12.08,2013-12-01 05:43:00,
2013-12-01 00:48:00,27.7,21.1,30.31,ESE,112,0.0,0.0,76,0.00,,CLR,0.00,VWS V12.08,2013-12-01 05:48:00,
2013-12-01 00:53:00,27.5,20.9,30.32,ESE,112,0.0,0.0,76,0.00,,CLR,0.00,VWS V12.08,2013-12-01 05:53:00,
2013-12-01 00:58:00,27.5,20.9,30.31,ESE,112,0.0,0.0,76,0.00,,CLR,0.00,VWS V12.08,2013-12-01 05:58:00,
2013-12-01 01:03:00,27.3,20.8,30.31,ESE,112,0.0,0.0,76,0.00,,CLR,0.00,VWS V12.08,2013-12-01 06:03:00,
2013-12-01 01:08:00,27.1,20.6,30.31,ESE,112,0.0,0.0,76,0.00,,CLR,0.00,VWS V12.08,2013-12-01 06:08:00,
2013-12-01 01:13:00,27.3,20.8,30.30,ESE,112,0.0,0.0,76,0.00,,CLR,0.00,VWS V12.08,2013-12-01 06:13:00,
2013-12-01 01:18:00,27.1,20.6,30.30,ESE,112,0.0,0.0,76,0.00,,CLR,0.00,VWS V12.08,2013-12-01 06:18:00,
2013-12-01 01:23:00,27.1,20.9,30.30,ESE,112,0.0,0.0,77,0.00,,CLR,0.00,VWS V12.08,2013-12-01 06:23:00,
2013-12-01 01:28:00,27.1,20.9,30.30,ESE,112,0.0,0.0,77,0.00,,CLR,0.00,VWS V12.08,2013-12-01 06:28:00,
2013-12-01 01:33:00,27.0,20.7,30.30,ESE,112,0.0,0.0,77,0.00,,CLR,0.00,VWS V12.08,2013-12-01 06:33:00,
2013-12-01 01:38:00,27.0,20.7,30.30,ESE,112,0.0,0.0,77,0.00,,CLR,0.00,VWS V12.08,2013-12-01 06:38:00,
2013-12-01 01:43:00,26.8,20.5,30.30,ESE,112,0.0,0.0,77,0.00,,CLR,0.00,VWS V12.08,2013-12-01 06:43:00,
2013-12-01 01:48:00,26.8,20.5,30.30,ESE,112,0.0,0.0,77,0.00,,CLR,0.00,VWS V12.08,2013-12-01 06:48:00,
2013-12-01 01:53:00,26.6,20.4,30.29,ESE,112,0.0,0.0,77,0.00,,CLR,0.00,VWS V12.08,2013-12-01 06:53:00,
2013-12-01 01:58:00,26.6,20.4,30.29,ESE,112,0.0,0.0,77,0.00,,CLR,0.00,VWS V12.08,2013-12-01 06:58:00,
2013-12-01 02:03:00,26.6,20.4,30.29,ESE,112,0.0,0.0,77,0.00,,CLR,0.00,VWS V12.08,2013-12-01 07:03:00,
2013-12-01 02:08:00,26.6,20.4,30.29,ESE,112,0.0,0.0,77,0.00,,CLR,0.00,VWS V12.08,2013-12-01 07:08:00,
2013-12-01 02:13:00,26.6,20.7,30.29,ESE,112,0.0,0.0,78,0.00,,CLR,0.00,VWS V12.08,2013-12-01 07:13:00,
2013-12-01 02:18:00,26.6,20.7,30.28,ESE,112,0.0,0.0,78,0.00,,CLR,0.00,VWS V12.08,2013-12-01 07:18:00,
2013-12-01 02:23:00,26.6,20.7,30.28,ESE,112,0.0,0.0,78,0.00,,CLR,0.00,VWS V12.08,2013-12-01 07:23:00,
2013-12-01 02:28:00,26.6,20.7,30.28,ESE,112,0.0,0.0,78,0.00,,CLR,0.00,VWS V12.08,2013-12-01 07:28:00,
2013-12-01 02:33:00,26.6,20.7,30.28,ESE,112,0.0,0.0,78,0.00,,CLR,0.00,VWS V12.08,2013-12-01 07:33:00,
2013-12-01 02:38:00,26.6,20.7,30.28,ESE,112,0.0,0.0,78,0.00,,CLR,0.00,VWS V12.08,2013-12-01 07:38:00,
2013-12-01 02:43:00,26.4,20.5,30.28,ESE,112,0.0,0.0,78,0.00,,CLR,0.00,VWS V12.08,2013-12-01 07:43:00,
2013-12-01 02:48:00,26.4,20.5,30.28,ESE,112,0.0,0.0,78,0.00,,CLR,0.00,VWS V12.08,2013-12-01 07:48:00,
2013-12-01 02:53:00,26.4,20.5,30.28,ESE,112,0.0,0.0,78,0.00,,CLR,0.00,VWS V12.08,2013-12-01 07:53:00,
2013-12-01 02:58:00,26.4,20.5,30.28,ESE,112,0.0,0.0,78,0.00,,CLR,0.00,VWS V12.08,2013-12-01 07:58:00,
2013-12-01 03:03:00,26.4,20.5,30.28,ESE,112,0.0,0.0,78,0.00,,CLR,0.00,VWS V12.08,2013-12-01 08:03:00,
2013-12-01 03:08:00,26.4,20.5,30.28,ESE,112,0.0,0.0,78,0.00,,CLR,0.00,VWS V12.08,2013-12-01 08:08:00,
2013-12-01 03:13:00,26.2,20.3,30.28,ESE,112,0.0,0.0,78,0.00,,CLR,0.00,VWS V12.08,2013-12-01 08:13:00,
2013-12-01 03:18:00,26.2,20.3,30.27,ESE,112,0.0,0.0,78,0.00,,CLR,0.00,VWS V12.08,2013-12-01 08:18:00,
2013-12-01 03:23:00,26.2,20.6,30.27,ESE,112,0.0,0.0,79,0.00,,CLR,0.00,VWS V12.08,2013-12-01 08:23:00,
2013-12-01 03:28:00,26.2,20.6,30.27,ESE,112,0.0,0.0,79,0.00,,CLR,0.00,VWS V12.08,2013-12-01 08:28:00,
2013-12-01 03:33:00,26.2,20.6,30.27,ESE,112,0.0,0.0,79,0.00,,CLR,0.00,VWS V12.08,2013-12-01 08:33:00,
2013-12-01 03:38:00,26.2,20.6,30.27,ESE,112,0.0,0.0,79,0.00,,CLR,0.00,VWS V12.08,2013-12-01 08:38:00,
2013-12-01 03:43:00,26.2,20.6,30.27,ESE,112,0.0,0.0,79,0.00,,CLR,0.00,VWS V12.08,2013-12-01 08:43:00,
2013-12-01 03:48:00,26.2,20.6,30.26,ESE,112,0.0,0.0,79,0.00,,CLR,0.00,VWS V12.08,2013-12-01 08:48:00,
2013-12-01 03:53:00,26.2,20.6,30.26,ESE,112,0.0,0.0,79,0.00,,CLR,0.00,VWS V12.08,2013-12-01 08:53:00,
2013-12-01 03:58:00,26.1,20.5,30.27,ESE,112,0.0,0.0,79,0.00,,CLR,0.00,VWS V12.08,2013-12-01 08:58:00,
2013-12-01 04:01:00,25.9,20.3,30.26,ESE,112,0.0,0.0,79,0.00,,CLR,0.00,VWS V12.08,2013-12-01 09:01:00,
2013-12-01 04:06:00,25.9,20.3,30.25,ESE,112,0.0,0.0,79,0.00,,CLR,0.00,VWS V12.08,2013-12-01 09:06:00,
2013-12-01 04:11:00,25.9,20.3,30.25,ESE,112,0.0,0.0,79,0.00,,CLR,0.00,VWS V12.08,2013-12-01 09:11:00,
2013-12-01 04:16:00,25.9,20.3,30.25,ESE,112,0.0,0.0,79,0.00,,CLR,0.00,VWS V12.08,2013-12-01 09:16:00,
2013-12-01 04:21:00,25.9,20.3,30.25,SE,135,0.0,0.0,79,0.00,,CLR,0.00,VWS V12.08,2013-12-01 09:21:00,
2013-12-01 04:26:00,25.9,20.3,30.24,SE,135,0.0,0.0,79,0.00,,CLR,0.00,VWS V12.08,2013-12-01 09:26:00,
2013-12-01 04:31:00,25.9,20.3,30.24,SE,135,0.0,0.0,79,0.00,,CLR,0.00,VWS V12.08,2013-12-01 09:31:00,
2013-12-01 04:36:00,25.7,20.1,30.24,SE,135,0.0,0.0,79,0.00,,CLR,0.00,VWS V12.08,2013-12-01 09:36:00,
2013-12-01 04:41:00,25.5,19.9,30.24,SE,135,0.0,0.0,79,0.00,,CLR,0.00,VWS V12.08,2013-12-01 09:41:00,
2013-12-01 04:46:00,25.5,19.9,30.24,SE,135,0.0,0.0,79,0.00,,CLR,0.00,VWS V12.08,2013-12-01 09:46:00,
2013-12-01 04:51:00,25.3,19.8,30.23,SE,135,0.0,0.0,79,0.00,,CLR,0.00,VWS V12.08,2013-12-01 09:51:00,
2013-12-01 04:56:00,25.3,19.5,30.23,SE,135,0.0,0.0,78,0.00,,CLR,0.00,VWS V12.08,2013-12-01 09:56:00,
2013-12-01 05:01:00,25.3,19.5,30.24,SE,135,0.0,0.0,78,0.00,,CLR,0.00,VWS V12.08,2013-12-01 10:01:00,
2013-12-01 05:06:00,25.2,19.6,30.24,SE,135,0.0,0.0,79,0.00,,CLR,0.00,VWS V12.08,2013-12-01 10:06:00,
2013-12-01 05:11:00,25.2,19.6,30.24,SE,135,0.0,0.0,79,0.00,,CLR,0.00,VWS V12.08,2013-12-01 10:11:00,
2013-12-01 05:16:00,25.0,19.4,30.24,ESE,112,0.0,0.0,79,0.00,,CLR,0.00,VWS V12.08,2013-12-01 10:16:00,
2013-12-01 05:21:00,25.2,19.6,30.24,ESE,112,0.0,0.0,79,0.00,,CLR,0.00,VWS V12.08,2013-12-01 10:21:00,
2013-12-01 05:26:00,25.2,19.6,30.23,ESE,112,0.0,0.0,79,0.00,,CLR,0.00,VWS V12.08,2013-12-01 10:26:00,
2013-12-01 05:31:00,25.2,19.6,30.24,ESE,112,0.0,0.0,79,0.00,,CLR,0.00,VWS V12.08,2013-12-01 10:31:00,
2013-12-01 05:36:00,25.2,19.6,30.24,ESE,112,0.0,0.0,79,0.00,,CLR,0.00,VWS V12.08,2013-12-01 10:36:00,
2013-12-01 05:41:00,25.0,19.4,30.24,ESE,112,0.0,0.0,79,0.00,,CLR,0.00,VWS V12.08,2013-12-01 10:41:00,
2013-12-01 05:46:00,25.0,19.4,30.23,ESE,112,0.0,0.0,79,0.00,,CLR,0.00,VWS V12.08,2013-12-01 10:46:00,
2013-12-01 05:51:00,25.0,19.4,30.24,ESE,112,0.0,0.0,79,0.00,,CLR,0.00,VWS V12.08,2013-12-01 10:51:00,
2013-12-01 05:56:00,25.0,19.4,30.23,ESE,112,0.0,0.0,79,0.00,,CLR,0.00,VWS V12.08,2013-12-01 10:56:00,
2013-12-01 06:01:00,25.0,19.4,30.24,ESE,112,0.0,0.0,79,0.00,,CLR,0.00,VWS V12.08,2013-12-01 11:01:00,
2013-12-01 06:06:00,25.0,19.4,30.23,ESE,112,0.0,0.0,79,0.00,,CLR,0.00,VWS V12.08,2013-12-01 11:06:00,
2013-12-01 06:11:00,25.0,19.4,30.23,ESE,112,0.0,0.0,79,0.00,,CLR,0.00,VWS V12.08,2013-12-01 11:11:00,
2013-12-01 06:16:00,25.0,19.4,30.23,ESE,112,0.0,0.0,79,0.00,,CLR,0.00,VWS V12.08,2013-12-01 11:16:00,
2013-12-01 06:21:00,25.0,19.4,30.23,ESE,112,0.0,0.0,79,0.00,,CLR,0.00,VWS V12.08,2013-12-01 11:21:00,
2013-12-01 06:26:00,25.0,19.4,30.23,ESE,112,0.0,0.0,79,0.00,,CLR,0.00,VWS V12.08,2013-12-01 11:26:00,
2013-12-01 06:31:00,25.0,19.4,30.23,ESE,112,0.0,0.0,79,0.00,,CLR,0.00,VWS V12.08,2013-12-01 11:31:00,
2013-12-01 06:36:00,25.0,19.4,30.23,ESE,112,0.0,0.0,79,0.00,,CLR,0.00,VWS V12.08,2013-12-01 11:36:00,
2013-12-01 06:41:00,25.0,19.4,30.23,ESE,112,0.0,0.0,79,0.00,,CLR,0.00,VWS V12.08,2013-12-01 11:41:00,
2013-12-01 06:46:00,24.6,19.0,30.24,ESE,112,0.0,0.0,79,0.00,,CLR,0.00,VWS V12.08,2013-12-01 11:46:00,
2013-12-01 06:51:00,24.6,19.0,30.23,ESE,112,0.0,0.0,79,0.00,,CLR,0.00,VWS V12.08,2013-12-01 11:51:00,
2013-12-01 06:56:00,24.6,19.0,30.23,ESE,112,0.0,0.0,79,0.00,,CLR,0.00,VWS V12.08,2013-12-01 11:56:00,
2013-12-01 07:01:00,24.6,19.0,30.24,ESE,112,0.0,0.0,79,0.00,,CLR,0.00,VWS V12.08,2013-12-01 12:01:00,
2013-12-01 07:06:00,24.6,19.0,30.24,ESE,112,0.0,0.0,79,0.00,,CLR,0.00,VWS V12.08,2013-12-01 12:06:00,
2013-12-01 07:11:00,24.4,18.9,30.24,ESE,112,0.0,0.0,79,0.00,,CLR,0.00,VWS V12.08,2013-12-01 12:11:00,
2013-12-01 07:16:00,24.4,18.9,30.24,ESE,112,0.0,0.0,79,0.00,,CLR,0.00,VWS V12.08,2013-12-01 12:16:00,
2013-12-01 07:21:00,24.4,18.9,30.23,ESE,112,0.0,0.0,79,0.00,,CLR,0.00,VWS V12.08,2013-12-01 12:21:00,
2013-12-01 07:26:00,24.4,18.9,30.23,ESE,112,0.0,0.0,79,0.00,,CLR,0.00,VWS V12.08,2013-12-01 12:26:00,
2013-12-01 07:31:00,24.4,19.2,30.24,ESE,112,0.0,0.0,80,0.00,,CLR,0.00,VWS V12.08,2013-12-01 12:31:00,
2013-12-01 07:36:00,24.4,19.2,30.24,ESE,112,0.0,0.0,80,0.00,,CLR,0.00,VWS V12.08,2013-12-01 12:36:00,
2013-12-01 07:41:00,24.4,19.2,30.23,ESE,112,0.0,0.0,80,0.00,,CLR,0.00,VWS V12.08,2013-12-01 12:41:00,
2013-12-01 07:46:00,24.4,19.2,30.23,ESE,112,0.0,0.0,80,0.00,,CLR,0.00,VWS V12.08,2013-12-01 12:46:00,
2013-12-01 07:51:00,24.4,19.2,30.22,ESE,112,0.0,0.0,80,0.00,,CLR,0.00,VWS V12.08,2013-12-01 12:51:00,
2013-12-01 07:56:00,24.6,19.3,30.23,ESE,112,0.0,0.0,80,0.00,,CLR,0.00,VWS V12.08,2013-12-01 12:56:00,
2013-12-01 08:01:00,24.6,19.3,30.23,ESE,112,0.0,0.0,80,0.00,,CLR,0.00,VWS V12.08,2013-12-01 13:01:00,
2013-12-01 08:06:00,24.6,19.3,30.22,ESE,112,0.0,0.0,80,0.00,,CLR,0.00,VWS V12.08,2013-12-01 13:06:00,
2013-12-01 08:11:00,25.0,19.7,30.23,ESE,112,0.0,0.0,80,0.00,,CLR,0.00,VWS V12.08,2013-12-01 13:11:00,
2013-12-01 08:16:00,25.0,19.7,30.22,ESE,112,0.0,0.0,80,0.00,,CLR,0.00,VWS V12.08,2013-12-01 13:16:00,
2013-12-01 08:21:00,25.0,19.7,30.22,ESE,112,0.0,0.0,80,0.00,,CLR,0.00,VWS V12.08,2013-12-01 13:21:00,
2013-12-01 08:26:00,25.2,19.9,30.22,SE,135,0.0,0.0,80,0.00,,CLR,0.00,VWS V12.08,2013-12-01 13:26:00,
2013-12-01 08:31:00,25.2,19.9,30.22,SE,135,0.0,0.0,80,0.00,,CLR,0.00,VWS V12.08,2013-12-01 13:31:00,
2013-12-01 08:36:00,25.7,20.4,30.22,SE,135,0.0,0.0,80,0.00,,CLR,0.00,VWS V12.08,2013-12-01 13:36:00,
2013-12-01 08:41:00,25.7,20.4,30.22,SE,135,0.0,0.0,80,0.00,,CLR,0.00,VWS V12.08,2013-12-01 13:41:00,
2013-12-01 08:46:00,26.2,21.2,30.22,SE,135,0.0,0.0,81,0.00,,CLR,0.00,VWS V12.08,2013-12-01 13:46:00,
2013-12-01 08:51:00,27.0,21.9,30.22,SE,135,0.0,0.0,81,0.00,,CLR,0.00,VWS V12.08,2013-12-01 13:51:00,
2013-12-01 08:56:00,27.1,22.1,30.22,SE,135,0.0,0.0,81,0.00,,CLR,0.00,VWS V12.08,2013-12-01 13:56:00,
2013-12-01 09:01:00,27.7,22.6,30.22,SE,135,0.0,0.0,81,0.00,,CLR,0.00,VWS V12.08,2013-12-01 14:01:00,
2013-12-01 09:06:00,28.2,23.1,30.22,SE,135,0.0,0.0,81,0.00,,CLR,0.00,VWS V12.08,2013-12-01 14:06:00,
2013-12-01 09:11:00,28.2,23.1,30.22,SE,135,0.0,0.0,81,0.00,,CLR,0.00,VWS V12.08,2013-12-01 14:11:00,
2013-12-01 09:16:00,28.9,23.9,30.22,SE,135,0.0,0.0,81,0.00,,CLR,0.00,VWS V12.08,2013-12-01 14:16:00,
2013-12-01 09:21:00,29.7,24.3,30.22,SE,135,0.0,0.0,80,0.00,,CLR,0.00,VWS V12.08,2013-12-01 14:21:00,
2013-12-01 09:26:00,30.4,25.3,30.22,SE,135,0.0,0.0,81,0.00,,CLR,0.00,VWS V12.08,2013-12-01 14:26:00,
2013-12-01 09:31:00,30.7,25.3,30.22,SE,135,0.0,0.0,80,0.00,,CLR,0.00,VWS V12.08,2013-12-01 14:31:00,
2013-12-01 09:36:00,31.3,25.8,30.22,ESE,112,0.0,0.0,80,0.00,,CLR,0.00,VWS V12.08,2013-12-01 14:36:00,
2013-12-01 09:41:00,32.2,26.4,30.22,ENE,68,0.0,0.0,79,0.00,,CLR,0.00,VWS V12.08,2013-12-01 14:41:00,
2013-12-01 09:46:00,32.2,26.4,30.22,ENE,68,0.0,0.0,79,0.00,,CLR,0.00,VWS V12.08,2013-12-01 14:46:00,
2013-12-01 09:51:00,33.8,27.0,30.22,NW,315,0.0,0.0,76,0.00,,CLR,0.00,VWS V12.08,2013-12-01 14:51:00,
2013-12-01 09:56:00,33.8,27.0,30.22,NW,315,0.0,0.0,76,0.00,,CLR,0.00,VWS V12.08,2013-12-01 14:56:00,
2013-12-01 10:01:00,34.3,27.6,30.22,NW,315,0.0,0.0,76,0.00,,CLR,0.00,VWS V12.08,2013-12-01 15:01:00,
2013-12-01 10:06:00,35.2,28.1,30.22,NNE,22,0.0,0.0,75,0.00,,CLR,0.00,VWS V12.08,2013-12-01 15:06:00,
2013-12-01 10:11:00,35.2,28.1,30.21,NNE,22,0.0,0.0,75,0.00,,CLR,0.00,VWS V12.08,2013-12-01 15:11:00,
2013-12-01 10:16:00,36.1,28.0,30.21,West,270,0.0,0.0,72,0.00,,CLR,0.00,VWS V12.08,2013-12-01 15:16:00,
2013-12-01 10:21:00,37.0,27.5,30.20,West,270,0.0,0.0,68,0.00,,CLR,0.00,VWS V12.08,2013-12-01 15:21:00,
2013-12-01 10:26:00,37.6,28.0,30.20,WNW,292,0.0,0.0,68,0.00,,CLR,0.00,VWS V12.08,2013-12-01 15:26:00,
2013-12-01 10:31:00,37.9,28.3,30.20,SSW,202,0.0,0.0,68,0.00,,CLR,0.00,VWS V12.08,2013-12-01 15:31:00,
2013-12-01 10:36:00,38.8,28.1,30.20,WNW,292,0.0,0.0,65,0.00,,CLR,0.00,VWS V12.08,2013-12-01 15:36:00,
2013-12-01 10:41:00,39.0,28.3,30.20,WNW,292,0.0,0.0,65,0.00,,CLR,0.00,VWS V12.08,2013-12-01 15:41:00,
2013-12-01 10:46:00,39.4,28.2,30.19,North,0,0.0,0.0,64,0.00,,CLR,0.00,VWS V12.08,2013-12-01 15:46:00,
2013-12-01 10:51:00,39.9,28.8,30.19,NNE,22,0.0,0.0,64,0.00,,CLR,0.00,VWS V12.08,2013-12-01 15:51:00,
2013-12-01 10:56:00,40.3,29.1,30.19,NNE,22,0.0,0.0,64,0.00,,CLR,0.00,VWS V12.08,2013-12-01 15:56:00,
2013-12-01 11:01:00,40.8,28.8,30.19,NW,315,0.0,0.0,62,0.00,,CLR,0.00,VWS V12.08,2013-12-01 16:01:00,
2013-12-01 11:06:00,41.5,29.5,30.19,ENE,68,0.0,0.9,62,0.00,,CLR,0.00,VWS V12.08,2013-12-01 16:06:00,
2013-12-01 11:11:00,41.5,29.5,30.19,ENE,68,0.0,0.9,62,0.00,,CLR,0.00,VWS V12.08,2013-12-01 16:11:00,
2013-12-01 11:16:00,42.6,30.5,30.17,ENE,68,0.0,0.9,62,0.00,,CLR,0.00,VWS V12.08,2013-12-01 16:16:00,
2013-12-01 11:21:00,42.6,30.5,30.17,NE,45,0.0,0.0,62,0.00,,CLR,0.00,VWS V12.08,2013-12-01 16:21:00,
2013-12-01 11:26:00,44.1,31.5,30.17,ENE,68,1.6,1.6,61,0.00,,CLR,0.00,VWS V12.08,2013-12-01 16:26:00,
2013-12-01 11:31:00,44.4,31.4,30.17,NW,315,0.0,1.6,60,0.00,,CLR,0.00,VWS V12.08,2013-12-01 16:31:00,
2013-12-01 11:36:00,45.1,31.7,30.16,North,0,0.0,1.6,59,0.00,,CLR,0.00,VWS V12.08,2013-12-01 16:36:00,
2013-12-01 11:41:00,45.7,31.8,30.16,WNW,292,1.1,1.1,58,0.00,,CLR,0.00,VWS V12.08,2013-12-01 16:41:00,
2013-12-01 11:46:00,45.7,31.8,30.16,WNW,292,1.1,1.1,58,0.00,,CLR,0.00,VWS V12.08,2013-12-01 16:46:00,
2013-12-01 11:51:00,46.2,32.3,30.15,WNW,292,2.5,2.5,58,0.00,,CLR,0.00,VWS V12.08,2013-12-01 16:51:00,
2013-12-01 11:56:00,46.2,32.3,30.14,WNW,292,2.5,2.5,58,0.00,,CLR,0.00,VWS V12.08,2013-12-01 16:56:00,
2013-12-01 12:01:00,47.5,32.6,30.14,WSW,248,0.0,0.0,56,0.00,,CLR,0.00,VWS V12.08,2013-12-01 17:01:00,
2013-12-01 12:06:00,48.0,32.6,30.14,NNE,22,0.0,0.0,55,0.00,,CLR,0.00,VWS V12.08,2013-12-01 17:06:00,
2013-12-01 12:11:00,48.0,32.6,30.13,WNW,292,0.0,0.0,55,0.00,,CLR,0.00,VWS V12.08,2013-12-01 17:11:00,
2013-12-01 12:16:00,48.9,33.0,30.13,West,270,0.0,0.0,54,0.00,,CLR,0.00,VWS V12.08,2013-12-01 17:16:00,
2013-12-01 12:21:00,49.3,32.9,30.13,NNE,22,0.0,0.0,53,0.00,,CLR,0.00,VWS V12.08,2013-12-01 17:21:00,
2013-12-01 12:26:00,49.3,32.9,30.12,NNE,22,0.0,0.0,53,0.00,,CLR,0.00,VWS V12.08,2013-12-01 17:26:00,
2013-12-01 12:31:00,49.8,32.9,30.12,NNW,338,0.0,0.0,52,0.00,,CLR,0.00,VWS V12.08,2013-12-01 17:31:00,
2013-12-01 12:36:00,50.2,33.2,30.11,WNW,292,0.0,0.0,52,0.00,,CLR,0.00,VWS V12.08,2013-12-01 17:36:00,
2013-12-01 12:41:00,50.9,33.4,30.11,WNW,292,4.0,4.0,51,0.00,,CLR,0.00,VWS V12.08,2013-12-01 17:41:00,
2013-12-01 12:46:00,51.3,33.8,30.11,WNW,292,0.0,4.0,51,0.00,,CLR,0.00,VWS V12.08,2013-12-01 17:46:00,
2013-12-01 12:51:00,51.4,33.9,30.11,NNW,338,0.0,4.0,51,0.00,,CLR,0.00,VWS V12.08,2013-12-01 17:51:00,
2013-12-01 12:56:00,51.8,33.8,30.11,West,270,1.3,4.0,50,0.00,,CLR,0.00,VWS V12.08,2013-12-01 17:56:00,
2013-12-01 13:01:00,52.2,33.6,30.10,WNW,292,0.0,0.0,49,0.00,,CLR,0.00,VWS V12.08,2013-12-01 18:01:00,
2013-12-01 13:06:00,52.3,34.8,30.10,ENE,68,1.3,1.3,51,0.00,,CLR,0.00,VWS V12.08,2013-12-01 18:06:00,
2013-12-01 13:11:00,52.5,34.4,30.10,NE,45,0.0,1.3,50,0.00,,CLR,0.00,VWS V12.08,2013-12-01 18:11:00,
2013-12-01 13:16:00,52.5,34.4,30.10,NE,45,0.0,1.3,50,0.00,,CLR,0.00,VWS V12.08,2013-12-01 18:16:00,
2013-12-01 13:21:00,52.9,34.8,30.09,NNW,338,0.7,0.7,50,0.00,,CLR,0.00,VWS V12.08,2013-12-01 18:21:00,
2013-12-01 13:26:00,52.9,34.8,30.08,NNW,338,0.7,0.7,50,0.00,,CLR,0.00,VWS V12.08,2013-12-01 18:26:00,
2013-12-01 13:31:00,52.9,34.8,30.08,NNW,338,0.7,0.7,50,0.00,,CLR,0.00,VWS V12.08,2013-12-01 18:31:00,
2013-12-01 13:36:00,52.9,34.8,30.08,NNW,338,0.7,0.7,50,0.00,,CLR,0.00,VWS V12.08,2013-12-01 18:36:00,
2013-12-01 13:41:00,53.8,34.6,30.08,WNW,292,0.0,0.7,48,0.00,,CLR,0.00,VWS V12.08,2013-12-01 18:41:00,
2013-12-01 13:46:00,54.0,34.7,30.07,NW,315,0.0,1.3,48,0.00,,CLR,0.00,VWS V12.08,2013-12-01 18:46:00,
2013-12-01 13:51:00,54.1,34.9,30.07,WNW,292,0.0,1.8,48,0.00,,CLR,0.00,VWS V12.08,2013-12-01 18:51:00,
2013-12-01 13:56:00,54.1,34.9,30.07,WNW,292,0.0,1.8,48,0.00,,CLR,0.00,VWS V12.08,2013-12-01 18:56:00,
2013-12-01 14:01:00,54.3,35.1,30.07,WNW,292,0.0,0.0,48,0.00,,CLR,0.00,VWS V12.08,2013-12-01 19:01:00,
2013-12-01 14:06:00,54.5,34.7,30.07,NNW,338,0.0,0.0,47,0.00,,CLR,0.00,VWS V12.08,2013-12-01 19:06:00,
2013-12-01 14:11:00,54.5,34.7,30.06,NNW,338,0.0,0.0,47,0.00,,CLR,0.00,VWS V12.08,2013-12-01 19:11:00,
2013-12-01 14:16:00,54.5,34.7,30.06,NNW,338,0.0,0.0,47,0.00,,CLR,0.00,VWS V12.08,2013-12-01 19:16:00,
2013-12-01 14:21:00,55.0,35.7,30.06,SW,225,0.0,1.3,48,0.00,,CLR,0.00,VWS V12.08,2013-12-01 19:21:00,
2013-12-01 14:26:00,55.0,35.2,30.06,WNW,292,0.0,1.3,47,0.00,,CLR,0.00,VWS V12.08,2013-12-01 19:26:00,
2013-12-01 14:31:00,55.2,35.4,30.06,SE,135,0.0,1.3,47,0.00,,CLR,0.00,VWS V12.08,2013-12-01 19:31:00,
2013-12-01 14:36:00,55.2,35.4,30.06,SSE,158,0.9,4.3,47,0.00,,CLR,0.00,VWS V12.08,2013-12-01 19:36:00,
2013-12-01 14:39:00,55.2,35.4,30.06,SE,135,0.0,4.3,47,0.00,,CLR,0.00,VWS V12.08,2013-12-01 19:39:00,
2013-12-01 14:44:00,55.0,35.2,30.06,WSW,248,0.0,0.0,47,0.00,,CLR,0.00,VWS V12.08,2013-12-01 19:44:00,
2013-12-01 14:49:00,55.2,35.4,30.06,SW,225,0.0,1.3,47,0.00,,CLR,0.00,VWS V12.08,2013-12-01 19:49:00,
2013-12-01 14:54:00,55.0,35.2,30.05,SW,225,0.0,1.3,47,0.00,,CLR,0.00,VWS V12.08,2013-12-01 19:54:00,
2013-12-01 14:59:00,55.0,35.2,30.05,NE,45,0.0,1.3,47,0.00,,CLR,0.00,VWS V12.08,2013-12-01 19:59:00,
2013-12-01 15:04:00,55.0,35.2,30.04,SE,135,3.1,3.1,47,0.00,,CLR,0.00,VWS V12.08,2013-12-01 20:04:00,
2013-12-01 15:09:00,54.9,35.0,30.04,SE,135,0.0,3.1,47,0.00,,CLR,0.00,VWS V12.08,2013-12-01 20:09:00,
2013-12-01 15:14:00,54.9,35.0,30.04,SE,135,0.0,3.1,47,0.00,,CLR,0.00,VWS V12.08,2013-12-01 20:14:00,
2013-12-01 15:19:00,54.7,35.4,30.04,SE,135,0.0,3.1,48,0.00,,CLR,0.00,VWS V12.08,2013-12-01 20:19:00,
2013-12-01 15:24:00,54.3,35.1,30.04,SE,135,0.0,0.0,48,0.00,,CLR,0.00,VWS V12.08,2013-12-01 20:24:00,
2013-12-01 15:29:00,54.3,35.1,30.04,SSE,158,0.0,2.7,48,0.00,,CLR,0.00,VWS V12.08,2013-12-01 20:29:00,
2013-12-01 15:34:00,54.1,35.4,30.04,SSE,158,0.0,2.7,49,0.00,,CLR,0.00,VWS V12.08,2013-12-01 20:34:00,
2013-12-01 15:39:00,53.8,35.1,30.04,SE,135,0.7,2.7,49,0.00,,CLR,0.00,VWS V12.08,2013-12-01 20:39:00,
2013-12-01 15:44:00,53.4,34.8,30.03,East,90,0.0,0.7,49,0.00,,CLR,0.00,VWS V12.08,2013-12-01 20:44:00,
2013-12-01 15:49:00,53.2,34.6,30.04,ENE,68,0.0,0.7,49,0.00,,CLR,0.00,VWS V12.08,2013-12-01 20:49:00,
2013-12-01 15:54:00,52.9,34.8,30.03,ESE,112,1.1,1.1,50,0.00,,CLR,0.00,VWS V12.08,2013-12-01 20:54:00,
2013-12-01 15:59:00,52.7,34.6,30.03,SE,135,0.0,1.1,50,0.00,,CLR,0.00,VWS V12.08,2013-12-01 20:59:00,
2013-12-01 16:04:00,52.5,34.4,30.03,SE,135,0.0,0.0,50,0.00,,CLR,0.00,VWS V12.08,2013-12-01 21:04:00,
2013-12-01 16:09:00,52.3,34.3,30.03,SE,135,0.0,0.0,50,0.00,,CLR,0.00,VWS V12.08,2013-12-01 21:09:00,
2013-12-01 16:14:00,52.3,34.3,30.04,SE,135,0.0,0.0,50,0.00,,CLR,0.00,VWS V12.08,2013-12-01 21:14:00,
2013-12-01 16:19:00,51.8,34.3,30.04,ENE,68,0.0,0.0,51,0.00,,CLR,0.00,VWS V12.08,2013-12-01 21:19:00,
2013-12-01 16:24:00,51.6,34.1,30.03,ENE,68,0.0,0.0,51,0.00,,CLR,0.00,VWS V12.08,2013-12-01 21:24:00,
2013-12-01 16:29:00,51.6,34.1,30.04,ENE,68,0.0,0.0,51,0.00,,CLR,0.00,VWS V12.08,2013-12-01 21:29:00,
2013-12-01 16:34:00,50.9,33.9,30.03,ENE,68,0.0,0.0,52,0.00,,CLR,0.00,VWS V12.08,2013-12-01 21:34:00,
2013-12-01 16:39:00,50.7,34.2,30.03,ENE,68,0.0,0.0,53,0.00,,CLR,0.00,VWS V12.08,2013-12-01 21:39:00,
2013-12-01 16:44:00,50.2,33.7,30.04,ENE,68,0.0,0.0,53,0.00,,CLR,0.00,VWS V12.08,2013-12-01 21:44:00,
2013-12-01 16:49:00,49.6,33.2,30.03,ENE,68,0.0,0.0,53,0.00,,CLR,0.00,VWS V12.08,2013-12-01 21:49:00,
2013-12-01 16:54:00,49.3,33.4,30.03,ENE,68,0.0,0.0,54,0.00,,CLR,0.00,VWS V12.08,2013-12-01 21:54:00,
2013-12-01 16:59:00,48.9,33.0,30.03,ENE,68,0.0,0.0,54,0.00,,CLR,0.00,VWS V12.08,2013-12-01 21:59:00,
2013-12-01 17:04:00,48.6,33.1,30.03,ENE,68,0.0,0.0,55,0.00,,CLR,0.00,VWS V12.08,2013-12-01 22:04:00,
2013-12-01 17:09:00,48.4,33.0,30.03,ENE,68,0.0,0.0,55,0.00,,CLR,0.00,VWS V12.08,2013-12-01 22:09:00,
2013-12-01 17:14:00,47.8,32.9,30.03,ENE,68,0.0,0.0,56,0.00,,CLR,0.00,VWS V12.08,2013-12-01 22:14:00,
2013-12-01 17:19:00,47.3,32.4,30.03,ENE,68,0.0,0.0,56,0.00,,CLR,0.00,VWS V12.08,2013-12-01 22:19:00,
2013-12-01 17:24:00,47.1,32.7,30.03,ENE,68,0.0,0.0,57,0.00,,CLR,0.00,VWS V12.08,2013-12-01 22:24:00,
2013-12-01 17:29:00,46.6,32.6,30.03,ENE,68,0.0,0.0,58,0.00,,CLR,0.00,VWS V12.08,2013-12-01 22:29:00,
2013-12-01 17:34:00,46.2,32.3,30.03,ENE,68,0.0,0.0,58,0.00,,CLR,0.00,VWS V12.08,2013-12-01 22:34:00,
2013-12-01 17:39:00,46.0,32.1,30.03,ENE,68,0.0,0.0,58,0.00,,CLR,0.00,VWS V12.08,2013-12-01 22:39:00,
2013-12-01 17:44:00,45.7,32.6,30.03,ENE,68,0.0,0.0,60,0.00,,CLR,0.00,VWS V12.08,2013-12-01 22:44:00,
2013-12-01 17:49:00,45.1,32.5,30.03,ENE,68,0.0,0.0,61,0.00,,CLR,0.00,VWS V12.08,2013-12-01 22:49:00,
2013-12-01 17:54:00,45.1,32.5,30.03,ENE,68,0.0,0.0,61,0.00,,CLR,0.00,VWS V12.08,2013-12-01 22:54:00,
2013-12-01 17:59:00,45.0,32.3,30.03,ENE,68,0.0,0.0,61,0.00,,CLR,0.00,VWS V12.08,2013-12-01 22:59:00,
2013-12-01 18:04:00,44.6,32.4,30.03,ENE,68,0.0,0.0,62,0.00,,CLR,0.00,VWS V12.08,2013-12-01 23:04:00,
2013-12-01 18:09:00,44.4,32.2,30.03,ENE,68,0.0,0.0,62,0.00,,CLR,0.00,VWS V12.08,2013-12-01 23:09:00,
2013-12-01 18:14:00,44.1,32.3,30.03,ENE,68,0.0,0.0,63,0.00,,CLR,0.00,VWS V12.08,2013-12-01 23:14:00,
2013-12-01 18:19:00,43.9,32.1,30.03,ENE,68,0.0,0.0,63,0.00,,CLR,0.00,VWS V12.08,2013-12-01 23:19:00,
2013-12-01 18:24:00,43.9,32.1,30.03,ENE,68,0.0,0.0,63,0.00,,CLR,0.00,VWS V12.08,2013-12-01 23:24:00,
2013-12-01 18:29:00,43.5,32.2,30.02,ENE,68,0.0,0.0,64,0.00,,CLR,0.00,VWS V12.08,2013-12-01 23:29:00,
2013-12-01 18:34:00,43.5,32.2,30.03,ENE,68,0.0,0.0,64,0.00,,CLR,0.00,VWS V12.08,2013-12-01 23:34:00,
2013-12-01 18:39:00,43.2,31.8,30.03,ENE,68,0.0,0.0,64,0.00,,CLR,0.00,VWS V12.08,2013-12-01 23:39:00,
2013-12-01 18:44:00,43.0,32.0,30.02,ENE,68,0.0,0.0,65,0.00,,CLR,0.00,VWS V12.08,2013-12-01 23:44:00,
2013-12-01 18:49:00,43.0,32.0,30.02,ENE,68,0.0,0.0,65,0.00,,CLR,0.00,VWS V12.08,2013-12-01 23:49:00,
2013-12-01 18:54:00,43.0,32.0,30.02,ENE,68,0.0,0.0,65,0.00,,CLR,0.00,VWS V12.08,2013-12-01 23:54:00,
2013-12-01 18:59:00,42.4,31.9,30.02,East,90,0.0,0.0,66,0.00,,CLR,0.00,VWS V12.08,2013-12-01 23:59:00,
2013-12-01 19:04:00,42.4,31.9,30.02,East,90,0.0,0.0,66,0.00,,CLR,0.00,VWS V12.08,2013-12-02 00:04:00,
2013-12-01 19:09:00,42.1,31.6,30.02,East,90,0.0,0.0,66,0.00,,CLR,0.00,VWS V12.08,2013-12-02 00:09:00,
2013-12-01 19:14:00,41.7,31.6,30.02,East,90,0.0,0.0,67,0.00,,CLR,0.00,VWS V12.08,2013-12-02 00:14:00,
2013-12-01 19:19:00,41.5,31.4,30.03,East,90,0.0,0.0,67,0.00,,CLR,0.00,VWS V12.08,2013-12-02 00:19:00,
2013-12-01 19:24:00,41.5,31.8,30.03,East,90,0.0,0.0,68,0.00,,CLR,0.00,VWS V12.08,2013-12-02 00:24:00,
2013-12-01 19:29:00,41.2,31.4,30.03,ESE,112,0.0,0.0,68,0.00,,CLR,0.00,VWS V12.08,2013-12-02 00:29:00,
2013-12-01 19:34:00,41.0,31.3,30.03,ESE,112,0.0,0.0,68,0.00,,CLR,0.00,VWS V12.08,2013-12-02 00:34:00,
2013-12-01 19:39:00,41.0,31.3,30.02,ESE,112,0.0,0.0,68,0.00,,CLR,0.00,VWS V12.08,2013-12-02 00:39:00,
2013-12-01 19:44:00,40.6,31.3,30.02,ESE,112,0.0,0.0,69,0.00,,CLR,0.00,VWS V12.08,2013-12-02 00:44:00,
2013-12-01 19:49:00,40.3,30.9,30.02,ESE,112,0.0,0.0,69,0.00,,CLR,0.00,VWS V12.08,2013-12-02 00:49:00,
2013-12-01 19:54:00,39.9,30.9,30.02,ESE,112,0.0,0.0,70,0.00,,CLR,0.00,VWS V12.08,2013-12-02 00:54:00,
2013-12-01 19:59:00,39.7,30.8,30.02,ESE,112,0.0,0.0,70,0.00,,CLR,0.00,VWS V12.08,2013-12-02 00:59:00,
2013-12-01 20:04:00,39.7,30.8,30.02,ESE,112,0.0,0.0,70,0.00,,CLR,0.00,VWS V12.08,2013-12-02 01:04:00,
2013-12-01 20:09:00,39.6,31.0,30.03,ESE,112,0.0,0.0,71,0.00,,CLR,0.00,VWS V12.08,2013-12-02 01:09:00,
2013-12-01 20:14:00,39.4,30.8,30.02,ESE,112,0.0,0.0,71,0.00,,CLR,0.00,VWS V12.08,2013-12-02 01:14:00,
2013-12-01 20:19:00,39.4,30.8,30.02,ESE,112,0.0,0.0,71,0.00,,CLR,0.00,VWS V12.08,2013-12-02 01:19:00,
2013-12-01 20:24:00,39.4,31.1,30.02,ESE,112,0.0,0.0,72,0.00,,CLR,0.00,VWS V12.08,2013-12-02 01:24:00,
2013-12-01 20:29:00,39.0,30.8,30.02,ESE,112,0.0,0.0,72,0.00,,CLR,0.00,VWS V12.08,2013-12-02 01:29:00,
2013-12-01 20:34:00,38.8,30.6,30.02,ESE,112,0.0,0.0,72,0.00,,CLR,0.00,VWS V12.08,2013-12-02 01:34:00,
2013-12-01 20:39:00,38.8,30.6,30.02,ESE,112,0.0,0.0,72,0.00,,CLR,0.00,VWS V12.08,2013-12-02 01:39:00,
2013-12-01 20:44:00,38.5,30.2,30.02,ESE,112,0.0,0.0,72,0.00,,CLR,0.00,VWS V12.08,2013-12-02 01:44:00,
2013-12-01 20:49:00,38.3,30.1,30.02,ESE,112,0.0,0.0,72,0.00,,CLR,0.00,VWS V12.08,2013-12-02 01:49:00,
2013-12-01 20:54:00,38.1,30.2,30.02,ESE,112,0.0,0.0,73,0.00,,CLR,0.00,VWS V12.08,2013-12-02 01:54:00,
2013-12-01 20:59:00,38.1,30.2,30.02,ESE,112,0.0,0.0,73,0.00,,CLR,0.00,VWS V12.08,2013-12-02 01:59:00,
2013-12-01 21:04:00,38.1,30.2,30.02,ESE,112,0.0,0.0,73,0.00,,CLR,0.00,VWS V12.08,2013-12-02 02:04:00,
2013-12-01 21:09:00,37.9,30.1,30.02,ESE,112,0.0,0.0,73,0.00,,CLR,0.00,VWS V12.08,2013-12-02 02:09:00,
2013-12-01 21:14:00,37.9,30.1,30.02,ESE,112,0.0,0.0,73,0.00,,CLR,0.00,VWS V12.08,2013-12-02 02:14:00,
2013-12-01 21:19:00,37.9,30.4,30.02,ESE,112,0.0,0.0,74,0.00,,CLR,0.00,VWS V12.08,2013-12-02 02:19:00,
2013-12-01 21:24:00,37.9,30.4,30.02,ESE,112,0.0,0.0,74,0.00,,CLR,0.00,VWS V12.08,2013-12-02 02:24:00,
2013-12-01 21:29:00,37.2,29.7,30.01,ESE,112,0.0,0.0,74,0.00,,CLR,0.00,VWS V12.08,2013-12-02 02:29:00,
2013-12-01 21:34:00,37.2,29.7,30.01,ESE,112,0.0,0.0,74,0.00,,CLR,0.00,VWS V12.08,2013-12-02 02:34:00,
2013-12-01 21:39:00,37.2,30.0,30.01,ESE,112,0.0,0.0,75,0.00,,CLR,0.00,VWS V12.08,2013-12-02 02:39:00,
2013-12-01 21:44:00,37.0,29.9,30.01,ESE,112,0.0,0.0,75,0.00,,CLR,0.00,VWS V12.08,2013-12-02 02:44:00,
2013-12-01 21:49:00,37.0,29.9,30.01,ESE,112,0.0,0.0,75,0.00,,CLR,0.00,VWS V12.08,2013-12-02 02:49:00,
2013-12-01 21:54:00,37.0,29.9,30.01,ESE,112,0.0,0.0,75,0.00,,CLR,0.00,VWS V12.08,2013-12-02 02:54:00,
2013-12-01 21:59:00,37.0,29.9,30.01,ESE,112,0.0,0.0,75,0.00,,CLR,0.00,VWS V12.08,2013-12-02 02:59:00,
2013-12-01 22:04:00,36.9,29.7,30.01,ESE,112,0.0,0.0,75,0.00,,CLR,0.00,VWS V12.08,2013-12-02 03:04:00,
2013-12-01 22:09:00,36.5,29.3,30.01,ESE,112,0.0,0.0,75,0.00,,CLR,0.00,VWS V12.08,2013-12-02 03:09:00,
2013-12-01 22:14:00,36.3,29.2,30.01,ESE,112,0.0,0.0,75,0.00,,CLR,0.00,VWS V12.08,2013-12-02 03:14:00,
2013-12-01 22:19:00,36.1,29.0,30.01,ESE,112,0.0,0.0,75,0.00,,CLR,0.00,VWS V12.08,2013-12-02 03:19:00,
2013-12-01 22:24:00,36.0,28.8,30.01,ESE,112,0.0,0.0,75,0.00,,CLR,0.00,VWS V12.08,2013-12-02 03:24:00,
2013-12-01 22:29:00,35.8,29.0,30.01,ESE,112,0.0,0.0,76,0.00,,CLR,0.00,VWS V12.08,2013-12-02 03:29:00,
2013-12-01 22:34:00,35.8,29.0,30.01,ESE,112,0.0,0.0,76,0.00,,CLR,0.00,VWS V12.08,2013-12-02 03:34:00,
2013-12-01 22:39:00,35.2,28.5,30.01,ESE,112,0.0,0.0,76,0.00,,CLR,0.00,VWS V12.08,2013-12-02 03:39:00,
2013-12-01 22:44:00,35.2,28.5,30.01,ESE,112,0.0,0.0,76,0.00,,CLR,0.00,VWS V12.08,2013-12-02 03:44:00,
2013-12-01 22:49:00,34.9,28.1,30.01,ESE,112,0.0,0.0,76,0.00,,CLR,0.00,VWS V12.08,2013-12-02 03:49:00,
2013-12-01 22:54:00,34.9,28.1,30.01,ESE,112,0.0,0.0,76,0.00,,CLR,0.00,VWS V12.08,2013-12-02 03:54:00,
2013-12-01 22:59:00,34.7,28.2,30.01,ESE,112,0.0,0.0,77,0.00,,CLR,0.00,VWS V12.08,2013-12-02 03:59:00,
2013-12-01 23:04:00,34.5,28.1,30.01,ESE,112,0.0,0.0,77,0.00,,CLR,0.00,VWS V12.08,2013-12-02 04:04:00,
2013-12-01 23:09:00,34.3,27.9,30.01,ESE,112,0.0,0.0,77,0.00,,CLR,0.00,VWS V12.08,2013-12-02 04:09:00,
2013-12-01 23:14:00,34.3,27.9,30.01,ESE,112,0.0,0.0,77,0.00,,CLR,0.00,VWS V12.08,2013-12-02 04:14:00,
2013-12-01 23:19:00,34.3,27.9,30.01,ESE,112,0.0,0.0,77,0.00,,CLR,0.00,VWS V12.08,2013-12-02 04:19:00,
2013-12-01 23:24:00,34.3,28.2,30.01,ESE,112,0.0,0.0,78,0.00,,CLR,0.00,VWS V12.08,2013-12-02 04:24:00,
2013-12-01 23:29:00,34.3,28.2,30.01,ESE,112,0.0,0.0,78,0.00,,CLR,0.00,VWS V12.08,2013-12-02 04:29:00,
2013-12-01 23:34:00,34.3,28.2,30.00,ESE,112,0.0,0.0,78,0.00,,CLR,0.00,VWS V12.08,2013-12-02 04:34:00,
2013-12-01 23:39:00,34.3,28.2,30.01,ESE,112,0.0,0.0,78,0.00,,CLR,0.00,VWS V12.08,2013-12-02 04:39:00,
2013-12-01 23:44:00,34.2,28.0,30.00,ESE,112,0.0,0.0,78,0.00,,CLR,0.00,VWS V12.08,2013-12-02 04:44:00,
2013-12-01 23:49:00,34.2,28.0,30.00,ESE,112,0.0,0.0,78,0.00,,CLR,0.00,VWS V12.08,2013-12-02 04:49:00,
2013-12-01 23:54:00,34.0,27.9,30.00,ESE,112,0.0,0.0,78,0.00,,CLR,0.00,VWS V12.08,2013-12-02 04:54:00,
2013-12-01 23:59:00,34.0,27.9,30.00,ESE,112,0.0,0.0,78,0.00,,CLR,0.00,VWS V12.08,2013-12-02 04:59:00,